Time;durP1;ratioP1;P1;durP2;ratioP2;P2;SDS_P1;SDS_P2;PMS_P1;PMS_P2;Temp;Humidity;BMP_temperature;BMP_pressure;BME280_temperature;BME280_humidity;BME280_pressure;Samples;Min_cycle;Max_cycle;Signal;HPM_P1;HPM_P2
2023/03/22 00:01:15;;;;;;;14.60;5.85;;;;;;;13.88;56.74;100940.97;4958744;28;123758;-72
2023/03/22 00:03:42;;;;;;;8.85;5.35;;;;;;;13.85;56.63;100936.69;4957215;28;114573;-72
2023/03/22 00:06:10;;;;;;;11.90;5.75;;;;;;;13.82;56.80;100932.41;4958202;28;114551;-72
2023/03/22 00:08:38;;;;;;;9.23;5.50;;;;;;;13.78;56.84;100930.84;4964452;28;123885;-72
2023/03/22 00:11:06;;;;;;;10.82;5.57;;;;;;;13.77;57.01;100929.13;4951012;28;123996;-72
2023/03/22 00:13:35;;;;;;;8.75;5.50;;;;;;;13.75;56.89;100924.81;4951019;28;114834;-72
2023/03/22 00:16:03;;;;;;;10.50;5.97;;;;;;;13.71;57.16;100924.19;4954921;28;113967;-72
2023/03/22 00:18:31;;;;;;;9.50;5.53;;;;;;;13.70;57.11;100927.75;4955416;28;124228;-71
2023/03/22 00:20:59;;;;;;;7.68;5.35;;;;;;;13.66;57.34;100915.59;4951749;28;124766;-72
2023/03/22 00:23:27;;;;;;;9.63;5.57;;;;;;;13.64;57.13;100912.16;4966603;28;114323;-72
2023/03/22 00:25:55;;;;;;;12.07;6.00;;;;;;;13.62;57.07;100914.03;4953889;28;116274;-72
2023/03/22 00:28:23;;;;;;;9.57;5.15;;;;;;;13.59;57.14;100908.88;4956480;28;124229;-72
2023/03/22 00:30:53;;;;;;;10.23;5.57;;;;;;;13.57;57.22;100900.13;4938314;28;123182;-72
2023/03/22 00:33:21;;;;;;;11.15;5.47;;;;;;;13.54;57.18;100902.97;4952803;28;115379;-72
2023/03/22 00:35:54;;;;;;;8.60;5.28;;;;;;;13.52;57.15;100899.53;4950548;28;113951;-72
2023/03/22 00:38:21;;;;;;;12.27;5.18;;;;;;;13.50;57.09;100893.44;4965458;28;123627;-72
2023/03/22 00:41:07;;;;;;;11.50;5.07;;;;;;;13.47;56.99;100893.59;4951336;28;124296;-72
2023/03/22 00:43:34;;;;;;;8.50;4.57;;;;;;;13.46;57.18;100891.91;4969466;28;113738;-72
2023/03/22 00:46:03;;;;;;;12.68;5.30;;;;;;;13.42;57.21;100886.75;4967698;28;113634;-71
2023/03/22 00:48:30;;;;;;;7.47;4.90;;;;;;;13.40;57.22;100877.13;4955099;28;124575;-72
2023/03/22 00:50:57;;;;;;;8.55;4.75;;;;;;;13.37;57.23;100878.19;4956145;28;124314;-72
2023/03/22 00:53:25;;;;;;;12.07;5.10;;;;;;;13.35;57.16;100874.72;4970127;28;113257;-72
2023/03/22 00:55:52;;;;;;;11.27;5.25;;;;;;;13.33;57.29;100865.97;4936370;28;113971;-72
2023/03/22 00:58:19;;;;;;;9.73;4.70;;;;;;;13.31;57.25;100859.03;4955433;28;124509;-72
2023/03/22 01:00:47;;;;;;;10.82;5.10;;;;;;;13.29;57.41;100864.41;4947445;28;123362;-72
2023/03/22 01:03:14;;;;;;;9.32;5.05;;;;;;;13.28;57.41;100854.72;4973945;28;113349;-72
2023/03/22 01:05:45;;;;;;;11.80;5.65;;;;;;;13.26;57.54;100848.63;4953640;28;113504;-72
2023/03/22 01:08:15;;;;;;;13.55;5.22;;;;;;;13.24;57.57;100855.81;4952688;28;123467;-72
2023/03/22 01:10:43;;;;;;;8.20;5.05;;;;;;;13.24;57.59;100855.81;4931888;28;123074;-72
2023/03/22 01:13:11;;;;;;;10.13;4.97;;;;;;;13.22;57.58;100847.06;4949968;28;114857;-72
2023/03/22 01:15:38;;;;;;;12.50;5.43;;;;;;;13.20;57.57;100840.97;4969493;28;114749;-72
2023/03/22 01:18:06;;;;;;;14.05;5.20;;;;;;;13.21;57.72;100837.38;4961355;28;123412;-72
2023/03/22 01:20:34;;;;;;;10.05;5.07;;;;;;;13.21;57.77;100840.06;4970057;28;122869;-72
2023/03/22 01:23:02;;;;;;;12.02;5.30;;;;;;;13.20;57.72;100833.00;4933148;28;113933;-71
2023/03/22 01:25:30;;;;;;;9.30;5.10;;;;;;;13.19;57.77;100836.63;4950230;28;113212;-71
2023/03/22 01:27:57;;;;;;;12.18;5.50;;;;;;;13.19;57.80;100831.31;4964052;28;123177;-71
2023/03/22 01:30:24;;;;;;;9.43;5.28;;;;;;;13.19;57.93;100825.97;4954982;28;123979;-71
2023/03/22 01:32:52;;;;;;;11.20;6.03;;;;;;;13.18;58.09;100818.94;4955589;28;114667;-71
2023/03/22 01:35:19;;;;;;;13.05;6.28;;;;;;;13.18;57.92;100817.13;4956294;28;113059;-71
2023/03/22 01:37:46;;;;;;;12.20;6.30;;;;;;;13.19;58.08;100810.88;4951023;28;123840;-71
2023/03/22 01:40:16;;;;;;;12.77;6.15;;;;;;;13.19;58.08;100800.25;4952602;28;123596;-71
2023/03/22 01:42:44;;;;;;;10.57;6.53;;;;;;;13.20;58.24;100801.09;4955015;28;113582;-72
2023/03/22 01:45:21;;;;;;;15.35;7.05;;;;;;;13.20;58.36;100787.78;4953560;28;113258;-71
2023/03/22 01:47:58;;;;;;;18.35;7.22;;;;;;;13.19;58.16;100778.13;4955615;28;123371;-72
2023/03/22 01:50:26;;;;;;;13.48;7.40;;;;;;;13.20;58.28;100774.50;4953455;28;124179;-72
2023/03/22 01:52:56;;;;;;;12.10;7.40;;;;;;;13.20;58.42;100774.50;4967010;28;113474;-71
2023/03/22 01:55:28;;;;;;;11.85;7.43;;;;;;;13.22;58.43;100761.97;4938542;28;112489;-72
2023/03/22 01:58:08;;;;;;;12.95;7.57;;;;;;;13.24;58.57;100770.72;4962087;28;124302;-72
2023/03/22 02:00:45;;;;;;;14.15;7.97;;;;;;;13.24;58.50;100760.06;4950338;28;123642;-72
2023/03/22 02:03:49;;;;;;;16.08;8.30;;;;;;;13.24;58.76;100749.44;4957819;28;115275;-71
2023/03/22 02:06:19;;;;;;;12.52;8.02;;;;;;;13.26;58.66;100747.56;4958421;28;114622;-71
2023/03/22 02:08:51;;;;;;;15.82;8.10;;;;;;;13.25;58.58;100745.84;4954740;28;123868;-72
2023/03/22 02:11:27;;;;;;;16.38;8.80;;;;;;;13.27;58.95;100741.28;4966362;28;123746;-72
2023/03/22 02:14:21;;;;;;;17.20;8.32;;;;;;;13.28;58.88;100735.03;4970041;28;115519;-72
2023/03/22 02:17:08;;;;;;;13.50;8.32;;;;;;;13.29;58.86;100736.72;4959211;28;114945;-72
2023/03/22 02:20:09;;;;;;;13.37;7.97;;;;;;;13.30;59.01;100722.53;4970050;28;124182;-71
2023/03/22 02:22:57;;;;;;;14.23;8.43;;;;;;;13.33;58.91;100721.47;4960099;28;124383;-72
2023/03/22 02:26:00;;;;;;;12.60;8.00;;;;;;;13.34;59.12;100718.75;4950705;28;114544;-72
2023/03/22 02:28:56;;;;;;;15.30;8.38;;;;;;;13.38;59.19;100722.09;4955888;28;113699;-72
2023/03/22 02:31:26;;;;;;;13.07;8.20;;;;;;;13.41;59.15;100713.91;4969810;28;124109;-71
2023/03/22 02:34:04;;;;;;;13.52;8.15;;;;;;;13.43;59.21;100712.88;4949364;28;123235;-72
2023/03/22 02:36:43;;;;;;;13.15;8.27;;;;;;;13.49;59.20;100716.13;4938252;28;114542;-72
2023/03/22 02:39:34;;;;;;;10.10;7.50;;;;;;;13.53;59.39;100712.34;4953809;28;113180;-72
2023/03/22 02:42:30;;;;;;;12.77;7.57;;;;;;;13.56;59.35;100712.13;4970238;28;124989;-72
2023/03/22 02:45:28;;;;;;;12.88;7.22;;;;;;;13.59;59.27;100714.63;4949082;28;123079;-71
2023/03/22 02:48:02;;;;;;;11.45;7.22;;;;;;;13.62;59.39;100706.47;4951880;28;114250;-72
2023/03/22 02:50:54;;;;;;;10.73;6.82;;;;;;;13.64;59.25;100704.56;4938193;28;113808;-72
2023/03/22 02:53:35;;;;;;;12.82;7.10;;;;;;;13.68;59.23;100700.78;4954868;28;124024;-72
2023/03/22 02:56:14;;;;;;;11.55;7.05;;;;;;;13.71;59.33;100694.38;4952760;28;123892;-72
2023/03/22 02:58:50;;;;;;;11.57;6.45;;;;;;;13.74;59.34;100703.06;4958287;28;114997;-71
2023/03/22 03:01:22;;;;;;;10.82;6.40;;;;;;;13.75;59.24;100702.13;4952308;28;113984;-71
2023/03/22 03:03:54;;;;;;;12.18;5.90;;;;;;;13.78;59.14;100709.91;4936714;28;123165;-72
2023/03/22 03:06:27;;;;;;;9.98;6.18;;;;;;;13.80;59.20;100705.34;4955412;28;123897;-71
2023/03/22 03:08:56;;;;;;;10.60;6.28;;;;;;;13.81;59.02;100691.09;4958724;28;113313;-72
2023/03/22 03:11:25;;;;;;;9.95;6.07;;;;;;;13.82;59.26;100692.81;4967399;28;113185;-72
2023/03/22 03:13:52;;;;;;;11.63;6.43;;;;;;;13.83;59.14;100689.19;4959751;28;123996;-72
2023/03/22 03:16:25;;;;;;;9.13;6.13;;;;;;;13.85;59.07;100691.75;4936996;28;124607;-72
2023/03/22 03:19:02;;;;;;;9.60;5.75;;;;;;;13.86;59.19;100687.28;4957409;28;114128;-72
2023/03/22 03:21:54;;;;;;;8.73;5.38;;;;;;;13.87;59.05;100678.34;4973020;28;113951;-71
2023/03/22 03:24:37;;;;;;;8.13;5.30;;;;;;;13.90;59.12;100683.47;4949088;28;123569;-72
2023/03/22 03:27:19;;;;;;;12.30;5.45;;;;;;;13.90;59.05;100688.81;4972049;28;123485;-72
2023/03/22 03:29:54;;;;;;;10.55;5.30;;;;;;;13.90;59.10;100683.47;4971531;28;113972;-72
2023/03/22 03:32:30;;;;;;;8.65;5.25;;;;;;;13.91;58.73;100685.19;4973690;28;113352;-72
2023/03/22 03:35:06;;;;;;;7.97;4.90;;;;;;;13.91;59.01;100682.53;4933057;28;124548;-72
2023/03/22 03:37:42;;;;;;;8.55;5.03;;;;;;;13.93;58.93;100683.28;4954315;28;125350;-72
2023/03/22 03:40:14;;;;;;;9.15;4.53;;;;;;;13.93;59.04;100684.16;4950621;28;114244;-72
2023/03/22 03:42:48;;;;;;;6.88;4.32;;;;;;;13.93;58.81;100672.66;4951706;28;113899;-71
2023/03/22 03:45:17;;;;;;;6.57;4.50;;;;;;;13.94;58.96;100675.22;4950307;28;123723;-71
2023/03/22 03:47:46;;;;;;;8.57;4.65;;;;;;;13.95;58.83;100670.75;4949336;28;124220;-72
2023/03/22 03:50:16;;;;;;;7.22;4.28;;;;;;;13.96;58.90;100675.13;4945943;28;115268;-72
2023/03/22 03:52:43;;;;;;;8.65;4.43;;;;;;;13.97;58.79;100668.84;4948662;28;114414;-72
2023/03/22 03:55:10;;;;;;;9.32;4.63;;;;;;;13.97;58.89;100679.50;4966549;28;123709;-72
2023/03/22 03:57:37;;;;;;;6.07;4.13;;;;;;;13.98;58.69;100681.22;4972231;28;123693;-72
2023/03/22 04:00:06;;;;;;;8.20;4.40;;;;;;;13.98;58.72;100678.56;4949330;28;113544;-72
2023/03/22 04:03:08;;;;;;;7.68;4.13;;;;;;;13.97;58.67;100679.50;4947595;28;115374;-72
2023/03/22 04:05:54;;;;;;;;;;;;;;;13.96;58.46;100688.44;4950413;28;122587;-72
2023/03/22 04:08:22;;;;;;;5.50;3.53;;;;;;;13.95;58.56;100686.72;4965822;28;124456;-72
2023/03/22 04:10:50;;;;;;;8.20;4.57;;;;;;;13.95;58.54;100686.72;4937481;28;114564;-72
2023/03/22 04:13:23;;;;;;;8.60;4.20;;;;;;;13.94;58.63;100682.38;4968364;28;113630;-71
2023/03/22 04:15:56;;;;;;;11.32;4.43;;;;;;;13.91;58.48;100680.72;4954525;28;124432;-71
2023/03/22 04:18:28;;;;;;;9.65;4.00;;;;;;;13.90;58.55;100683.47;4973270;28;123317;-72
2023/03/22 04:20:56;;;;;;;6.68;3.88;;;;;;;13.90;58.50;100686.13;4954515;28;113327;-72
2023/03/22 04:23:26;;;;;;;8.63;3.72;;;;;;;13.89;58.47;100676.47;4948756;28;113206;-71
2023/03/22 04:25:58;;;;;;;8.25;3.80;;;;;;;13.87;58.48;100673.03;4969279;28;124223;-71
2023/03/22 04:28:37;;;;;;;8.35;4.07;;;;;;;13.85;58.51;100664.28;4950668;28;124030;-71
2023/03/22 04:31:04;;;;;;;6.43;3.38;;;;;;;13.84;58.38;100668.72;4954915;28;114690;-72
2023/03/22 04:33:53;;;;;;;8.15;3.83;;;;;;;13.81;58.55;100658.28;4954616;28;113245;-71
2023/03/22 04:36:35;;;;;;;7.07;3.65;;;;;;;13.77;58.37;100646.97;4969192;28;123492;-72
2023/03/22 04:39:17;;;;;;;5.30;3.20;;;;;;;13.77;58.67;100652.31;4968734;28;122641;-72
2023/03/22 04:41:55;;;;;;;5.25;3.15;;;;;;;13.74;58.40;100657.81;4955571;28;96749;-71
2023/03/22 04:44:22;;;;;;;7.55;3.15;;;;;;;13.72;58.36;100649.06;4968465;28;114108;-72
2023/03/22 04:46:50;;;;;;;7.70;3.53;;;;;;;13.71;58.40;100658.00;4971620;28;125268;-72
2023/03/22 04:49:18;;;;;;;6.18;3.22;;;;;;;13.71;58.37;100658.00;4955424;28;122988;-72
2023/03/22 04:51:46;;;;;;;8.27;3.50;;;;;;;13.70;58.53;100656.28;4956175;28;113970;-72
2023/03/22 04:54:25;;;;;;;6.47;3.00;;;;;;;13.68;58.43;100647.53;4966838;28;113585;-72
2023/03/22 04:56:53;;;;;;;6.55;3.35;;;;;;;13.67;58.48;100640.50;4953893;28;124142;-72
2023/03/22 04:59:22;;;;;;;5.03;2.67;;;;;;;13.66;58.52;100638.78;4964454;28;122968;-71
2023/03/22 05:01:50;;;;;;;4.80;3.13;;;;;;;13.65;58.38;100641.53;4953897;28;114471;-71
2023/03/22 05:04:21;;;;;;;5.85;3.28;;;;;;;13.63;58.33;100650.47;4950068;28;113367;-71
2023/03/22 05:06:54;;;;;;;10.35;3.40;;;;;;;13.61;58.33;100631.06;4966760;28;123754;-71
2023/03/22 05:09:29;;;;;;;6.40;3.05;;;;;;;13.60;58.33;100634.72;4953891;28;125791;-71
2023/03/22 05:11:57;;;;;;;5.85;2.85;;;;;;;13.59;58.56;100637.44;4949593;28;114224;-71
2023/03/22 05:14:29;;;;;;;6.65;3.20;;;;;;;13.59;58.48;100642.78;4967170;28;113495;-72
2023/03/22 05:16:56;;;;;;;6.75;3.25;;;;;;;13.57;58.48;100639.34;4932047;28;123254;-71
2023/03/22 05:19:23;;;;;;;7.93;3.10;;;;;;;13.58;58.47;100641.06;4969707;28;123566;-71
2023/03/22 05:21:56;;;;;;;6.30;3.00;;;;;;;13.57;58.40;100644.69;4934905;28;113671;-72
2023/03/22 05:24:34;;;;;;;6.20;3.10;;;;;;;13.57;58.55;100644.69;4948158;28;115166;-72
2023/03/22 05:27:02;;;;;;;7.93;3.03;;;;;;;13.57;58.57;100634.03;4967264;28;124384;-72
2023/03/22 05:29:35;;;;;;;6.40;2.78;;;;;;;13.58;58.71;100636.59;4959138;28;123633;-73
2023/03/22 05:32:08;;;;;;;4.93;2.90;;;;;;;13.59;58.42;100637.44;4965223;28;114858;-70
2023/03/22 05:34:35;;;;;;;9.82;2.95;;;;;;;13.60;58.53;100639.19;4948265;28;117232;-70
2023/03/22 05:37:19;;;;;;;8.25;2.83;;;;;;;13.58;58.44;100636.59;4945827;28;125342;-70
2023/03/22 05:39:51;;;;;;;7.55;2.85;;;;;;;13.58;58.47;100635.72;4953351;28;123356;-70
2023/03/22 05:42:19;;;;;;;5.97;2.33;;;;;;;13.60;58.11;100644.50;4947345;28;114441;-70
2023/03/22 05:44:46;;;;;;;7.22;2.70;;;;;;;13.59;58.29;100638.31;4947403;28;113421;-70
2023/03/22 05:47:13;;;;;;;7.47;2.60;;;;;;;13.59;58.41;100640.13;4969340;28;123445;-71
2023/03/22 05:50:13;;;;;;;8.13;2.80;;;;;;;13.59;58.24;100634.78;4949432;28;124104;-70
2023/03/22 05:52:41;;;;;;;7.13;2.50;;;;;;;13.59;58.27;100637.44;4947260;28;114504;-71
2023/03/22 05:55:22;;;;;;;6.25;2.50;;;;;;;13.60;58.28;100633.84;4948822;28;113253;-70
2023/03/22 05:57:55;;;;;;;7.15;2.72;;;;;;;13.60;58.18;100634.72;4955355;28;123554;-71
2023/03/22 06:00:24;;;;;;;6.28;2.25;;;;;;;13.60;58.18;100628.53;4955294;28;125881;-71
2023/03/22 06:03:17;;;;;;;7.75;2.65;;;;;;;13.60;58.25;100629.38;4960486;28;114331;-71
2023/03/22 06:05:50;;;;;;;7.70;2.67;;;;;;;13.61;58.26;100630.22;4970333;28;113717;-71
2023/03/22 06:08:21;;;;;;;7.95;2.63;;;;;;;13.61;58.19;100635.56;4955701;28;124102;-71
2023/03/22 06:10:52;;;;;;;7.38;2.40;;;;;;;13.62;58.06;100637.28;4950648;28;123531;-71
2023/03/22 06:13:20;;;;;;;7.70;2.53;;;;;;;13.63;58.17;100628.31;4967198;28;113618;-71
2023/03/22 06:15:48;;;;;;;5.85;2.70;;;;;;;13.63;57.95;100636.31;4951790;28;114951;-71
2023/03/22 06:18:21;;;;;;;6.20;2.50;;;;;;;13.63;58.04;100638.97;4970067;28;123603;-71
2023/03/22 06:20:57;;;;;;;5.03;2.50;;;;;;;13.63;58.00;100633.66;4971721;28;123854;-71
2023/03/22 06:23:24;;;;;;;9.20;2.78;;;;;;;13.65;58.03;100637.06;4960311;28;115784;-70
2023/03/22 06:25:52;;;;;;;8.55;2.60;;;;;;;13.66;58.00;100638.78;4957582;28;114381;-71
2023/03/22 06:28:20;;;;;;;7.35;2.65;;;;;;;13.67;58.15;100635.16;4955861;28;123224;-71
2023/03/22 06:30:50;;;;;;;9.73;2.80;;;;;;;13.68;58.02;100631.56;4952939;28;123855;-71
2023/03/22 06:33:20;;;;;;;8.75;2.63;;;;;;;13.68;57.99;100631.56;4954190;28;113812;-71
2023/03/22 06:35:53;;;;;;;5.10;2.35;;;;;;;13.70;58.15;100640.31;4951070;28;113173;-71
2023/03/22 06:38:29;;;;;;;;;;;;;;;13.70;57.94;100629.66;4959924;28;123630;-71
2023/03/22 06:40:56;;;;;;;11.15;2.55;;;;;;;13.73;58.01;100624.16;4965295;28;125259;-71
2023/03/22 06:43:23;;;;;;;11.75;3.15;;;;;;;13.75;58.01;100632.03;4966335;28;113600;-72
2023/03/22 06:45:56;;;;;;;8.85;3.00;;;;;;;13.77;58.02;100636.34;4973536;28;113795;-71
2023/03/22 06:48:30;;;;;;;8.63;2.33;;;;;;;13.80;58.07;100625.47;4956452;28;123857;-71
2023/03/22 06:51:06;;;;;;;9.38;2.80;;;;;;;13.86;58.05;100629.56;4972088;28;123309;-71
2023/03/22 06:53:35;;;;;;;6.93;2.92;;;;;;;13.90;58.06;100625.78;4956993;28;113592;-73
2023/03/22 06:56:04;;;;;;;8.23;3.00;;;;;;;13.96;57.99;100629.88;4957699;28;115228;-72
2023/03/22 06:58:40;;;;;;;5.72;2.70;;;;;;;13.97;58.03;100629.75;4964868;28;123197;-72
2023/03/22 07:01:07;;;;;;;6.57;2.70;;;;;;;14.00;57.88;100626.06;4966005;28;122705;-71
2023/03/22 07:03:35;;;;;;;7.15;2.58;;;;;;;14.03;57.82;100631.16;4978851;28;113660;-72
2023/03/22 07:06:07;;;;;;;7.50;2.80;;;;;;;14.06;57.95;100636.31;4961616;28;114347;-73
2023/03/22 07:08:38;;;;;;;7.88;2.90;;;;;;;14.09;57.83;100630.81;4963444;28;124261;-72
2023/03/22 07:11:07;;;;;;;6.57;2.65;;;;;;;14.12;57.96;100635.91;4961179;28;124877;-72
2023/03/22 07:13:35;;;;;;;7.30;2.80;;;;;;;14.17;57.84;100636.50;4961777;28;114895;-72
2023/03/22 07:16:09;;;;;;;10.02;2.63;;;;;;;14.22;57.81;100636.19;4959120;28;114881;-72
2023/03/22 07:18:44;;;;;;;7.22;2.60;;;;;;;14.26;57.84;100632.41;4963035;28;123363;-72
2023/03/22 07:21:11;;;;;;;8.02;2.60;;;;;;;14.32;57.83;100640.00;4977342;28;123796;-72
2023/03/22 07:23:41;;;;;;;8.85;3.00;;;;;;;14.39;57.62;100637.75;4959877;28;113435;-72
2023/03/22 07:26:12;;;;;;;9.98;2.83;;;;;;;14.44;57.71;100630.34;4978500;28;114312;-72
2023/03/22 07:28:43;;;;;;;8.07;2.63;;;;;;;14.51;57.81;100621.00;4952295;28;124091;-72
2023/03/22 07:31:12;;;;;;;9.18;3.05;;;;;;;14.58;57.59;100627.69;4968729;28;123487;-72
2023/03/22 07:33:47;;;;;;;4.93;2.92;;;;;;;14.63;57.44;100624.69;4959946;28;113434;-72
2023/03/22 07:36:15;;;;;;;7.30;2.75;;;;;;;14.67;57.41;100633.34;4962425;28;113530;-72
2023/03/22 07:38:42;;;;;;;9.95;2.95;;;;;;;14.72;57.35;100633.91;4954248;28;123502;-72
2023/03/22 07:41:15;;;;;;;5.95;2.55;;;;;;;14.75;57.18;100625.72;4970801;28;124962;-72
2023/03/22 07:44:12;;;;;;;7.50;2.83;;;;;;;14.77;57.02;100637.13;4964662;28;113499;-72
2023/03/22 07:47:00;;;;;;;7.80;2.75;;;;;;;14.79;56.93;100640.56;4960152;28;113510;-72
2023/03/22 07:49:35;;;;;;;;;;;;;;;14.79;56.95;100640.56;4969052;28;123544;-72
2023/03/22 07:52:08;;;;;;;9.25;2.90;;;;;;;14.81;57.02;100638.63;4950403;28;124792;-72
2023/03/22 07:54:35;;;;;;;11.90;2.72;;;;;;;14.83;56.98;100642.06;4952522;28;112656;-72
2023/03/22 07:57:05;;;;;;;7.65;2.72;;;;;;;14.85;57.04;100645.47;4936795;28;113846;-72
2023/03/22 07:59:36;;;;;;;6.45;2.80;;;;;;;14.90;56.97;100643.38;4949732;28;124134;-72
2023/03/22 08:02:09;;;;;;;7.13;2.70;;;;;;;14.91;56.69;100639.72;4969305;28;124016;-72
2023/03/22 08:04:43;;;;;;;12.65;2.80;;;;;;;14.92;56.58;100641.44;4960818;28;114586;-72
2023/03/22 08:07:25;;;;;;;5.53;2.50;;;;;;;14.95;56.51;100641.22;4952330;28;114480;-72
2023/03/22 08:09:52;;;;;;;7.93;2.70;;;;;;;14.97;56.49;100644.69;4951992;28;123592;-72
2023/03/22 08:12:20;;;;;;;7.22;2.85;;;;;;;15.03;56.87;100637.19;4972182;28;122312;-72
2023/03/22 08:14:54;;;;;;;7.40;2.70;;;;;;;15.09;56.58;100636.81;4964868;28;114196;-72
2023/03/22 08:17:25;;;;;;;6.68;2.60;;;;;;;15.12;56.43;100636.59;4971421;28;113799;-72
2023/03/22 08:19:55;;;;;;;6.90;2.45;;;;;;;15.15;56.40;100636.38;4970651;28;123735;-72
2023/03/22 08:22:35;;;;;;;9.70;2.60;;;;;;;15.17;56.29;100637.13;4968822;28;123505;-73
2023/03/22 08:25:22;;;;;;;9.68;2.20;;;;;;;15.18;56.07;100645.03;4953821;28;114779;-72
2023/03/22 08:27:51;;;;;;;8.40;2.55;;;;;;;15.19;56.09;100648.56;4952893;28;111532;-72
2023/03/22 08:30:20;;;;;;;7.05;2.38;;;;;;;15.21;55.85;100651.97;4951715;28;125330;-72
2023/03/22 08:32:47;;;;;;;6.88;2.22;;;;;;;15.24;55.84;100651.78;4967941;28;123589;-72
2023/03/22 08:35:15;;;;;;;7.72;2.30;;;;;;;15.28;55.96;100653.28;4958652;28;114668;-72
2023/03/22 08:37:42;;;;;;;6.57;2.38;;;;;;;15.31;55.77;100647.72;4975023;28;114287;-72
2023/03/22 08:40:10;;;;;;;6.25;2.30;;;;;;;15.35;55.66;100643.91;4958071;28;123786;-72
2023/03/22 08:42:44;;;;;;;7.82;2.67;;;;;;;15.41;55.46;100657.75;4964659;28;123371;-72
2023/03/22 08:45:11;;;;;;;6.35;2.25;;;;;;;15.46;55.48;100644.97;4968077;28;113680;-72
2023/03/22 08:47:47;;;;;;;4.72;2.08;;;;;;;15.52;55.51;100634.72;4945541;28;114128;-72
2023/03/22 08:50:17;;;;;;;7.40;2.25;;;;;;;15.56;55.62;100635.38;4978447;28;123838;-73
2023/03/22 08:52:55;;;;;;;10.80;2.70;;;;;;;15.62;55.26;100624.25;4965202;28;123398;-72
2023/03/22 08:55:28;;;;;;;5.82;2.13;;;;;;;15.70;55.23;100632.56;4949656;28;114940;-72
2023/03/22 08:58:15;;;;;;;6.40;2.25;;;;;;;15.77;55.03;100623.22;4948260;28;115168;-72
2023/03/22 09:01:21;;;;;;;6.68;2.50;;;;;;;15.83;55.03;100621.06;4941651;28;124316;-72
2023/03/22 09:03:56;;;;;;;6.15;1.80;;;;;;;15.88;54.97;100618.91;4967994;28;123085;-72
2023/03/22 09:06:27;;;;;;;6.32;2.38;;;;;;;15.94;54.66;100613.16;4968537;28;113890;-72
2023/03/22 09:08:54;;;;;;;8.40;2.28;;;;;;;15.98;54.44;100609.28;4964857;28;113688;-73
2023/03/22 09:11:23;;;;;;;10.07;2.08;;;;;;;16.03;54.26;100612.50;4957149;28;123408;-72
2023/03/22 09:13:50;;;;;;;3.97;1.92;;;;;;;16.07;54.29;100614.00;4948411;28;123482;-72
2023/03/22 09:16:18;;;;;;;6.95;2.25;;;;;;;16.14;54.20;100615.25;4932981;28;114064;-72
2023/03/22 09:18:46;;;;;;;6.32;2.20;;;;;;;16.19;53.97;100614.06;4960141;28;115357;-73
2023/03/22 09:21:16;;;;;;;9.15;2.05;;;;;;;16.22;53.68;100608.47;4950935;28;123712;-72
2023/03/22 09:24:02;;;;;;;7.72;2.30;;;;;;;16.25;53.80;100605.59;4967233;28;124153;-72
2023/03/22 09:26:39;;;;;;;7.45;2.35;;;;;;;16.29;53.69;100597.25;4965285;28;114121;-72
2023/03/22 09:29:06;;;;;;;11.88;2.40;;;;;;;16.37;53.59;100603.84;4962802;28;114107;-72
2023/03/22 09:31:34;;;;;;;7.85;2.22;;;;;;;16.42;53.54;100597.19;4964170;28;123774;-72
2023/03/22 09:34:16;;;;;;;6.63;2.15;;;;;;;16.45;53.28;100596.13;4934226;28;123648;-72
2023/03/22 09:36:44;;;;;;;7.10;1.90;;;;;;;16.47;53.00;100605.72;4959689;28;113877;-72
2023/03/22 09:39:12;;;;;;;6.72;2.35;;;;;;;16.48;52.81;100596.75;4964950;28;113995;-72
2023/03/22 09:41:53;;;;;;;7.68;2.13;;;;;;;16.51;52.94;100596.50;4965439;28;123351;-72
2023/03/22 09:44:35;;;;;;;5.82;1.90;;;;;;;16.56;52.74;100593.50;4967154;28;122648;-72
2023/03/22 09:47:12;;;;;;;4.80;1.60;;;;;;;16.61;52.74;100598.50;4964921;28;115003;-72
2023/03/22 09:49:43;;;;;;;7.20;1.95;;;;;;;16.63;52.39;100599.25;4957727;28;115089;-72
2023/03/22 09:52:20;;;;;;;9.27;1.90;;;;;;;16.64;52.32;100600.97;4966844;28;124776;-72
2023/03/22 09:54:47;;;;;;;5.75;1.75;;;;;;;16.66;52.28;100607.06;4966121;28;124239;-72
2023/03/22 09:57:23;;;;;;;5.78;1.83;;;;;;;16.69;52.13;100593.47;4972433;28;114557;-73
2023/03/22 10:00:04;;;;;;;5.18;1.80;;;;;;;16.71;52.02;100596.88;4968930;28;114429;-72
2023/03/22 10:02:46;;;;;;;7.63;1.80;;;;;;;16.73;52.03;100600.28;4971496;28;125249;-72
2023/03/22 10:05:32;;;;;;;4.97;1.67;;;;;;;16.74;51.93;100596.63;4964342;28;123810;-72
2023/03/22 10:08:19;;;;;;;7.60;1.80;;;;;;;16.72;51.60;100609.25;4952938;28;114213;-72
2023/03/22 10:10:47;;;;;;;6.60;2.15;;;;;;;16.69;51.52;100593.47;4959926;28;113956;-73
2023/03/22 10:13:42;;;;;;;6.90;1.75;;;;;;;16.67;51.48;100595.38;4951905;28;124650;-73
2023/03/22 10:16:15;;;;;;;7.25;1.90;;;;;;;16.66;51.39;100593.69;4951498;28;124065;-72
2023/03/22 10:18:50;;;;;;;7.32;1.65;;;;;;;16.65;51.49;100591.97;4965180;28;114115;-73
2023/03/22 10:21:18;;;;;;;;;;;;;;;16.64;52.09;100596.47;4935326;28;113335;-72
2023/03/22 10:23:57;;;;;;;6.43;1.60;;;;;;;16.66;51.68;100599.03;4965487;28;123648;-72
2023/03/22 10:26:33;;;;;;;7.05;1.55;;;;;;;16.63;51.64;100593.91;4951871;28;122802;-72
2023/03/22 10:29:04;;;;;;;;;;;;;;;16.61;51.96;100590.50;4950396;28;114375;-72
2023/03/22 10:31:33;;;;;;;6.18;2.00;;;;;;;16.61;51.69;100590.50;4962929;28;114143;-72
2023/03/22 10:34:06;;;;;;;6.72;1.70;;;;;;;16.60;51.30;100588.78;4954445;28;124259;-72
2023/03/22 10:36:37;;;;;;;9.15;1.85;;;;;;;16.55;51.45;100583.78;4950507;28;123522;-72
2023/03/22 10:39:29;;;;;;;8.02;1.67;;;;;;;16.49;51.13;100587.75;4967595;28;114629;-72
2023/03/22 10:42:00;;;;;;;7.40;1.60;;;;;;;16.47;51.30;100595.03;4967162;28;114047;-72
2023/03/22 10:44:30;;;;;;;8.38;1.90;;;;;;;16.45;51.34;100607.66;4971402;28;123874;-72
2023/03/22 10:47:05;;;;;;;6.10;1.80;;;;;;;16.42;51.50;100602.53;4968841;28;123746;-72
2023/03/22 10:49:47;;;;;;;9.20;1.92;;;;;;;16.38;51.57;100606.41;4975060;28;113777;-72
2023/03/22 10:52:36;;;;;;;8.45;1.70;;;;;;;16.32;51.63;100609.53;4969278;28;113824;-72
2023/03/22 10:55:08;;;;;;;6.00;1.35;;;;;;;16.24;51.71;100614.59;4968657;28;123873;-72
2023/03/22 10:57:36;;;;;;;7.32;1.83;;;;;;;16.18;51.84;100609.66;4968351;28;123058;-72
2023/03/22 11:00:08;;;;;;;5.88;1.50;;;;;;;16.10;52.03;100611.06;4968812;28;113470;-72
2023/03/22 11:02:44;;;;;;;6.72;1.88;;;;;;;16.03;52.14;100617.84;4949537;28;113261;-72
2023/03/22 11:05:21;;;;;;;6.35;1.63;;;;;;;15.99;52.28;100618.16;4959927;28;124307;-72
2023/03/22 11:07:49;;;;;;;7.57;1.50;;;;;;;15.94;52.31;100613.16;4956930;28;124066;-72
2023/03/22 11:10:26;;;;;;;6.93;1.95;;;;;;;15.88;52.65;100618.91;4959845;28;113784;-72
2023/03/22 11:13:09;;;;;;;5.97;1.67;;;;;;;15.87;52.85;100617.22;4959834;28;114001;-73
2023/03/22 11:15:48;;;;;;;6.32;1.90;;;;;;;15.85;53.05;100614.66;4954860;28;124159;-72
2023/03/22 11:18:17;;;;;;;6.57;1.98;;;;;;;15.87;53.13;100611.88;4951890;28;123983;-72
2023/03/22 11:21:06;;;;;;;6.45;1.80;;;;;;;15.87;53.23;100614.56;4951180;28;113200;-72
2023/03/22 11:23:37;;;;;;;8.93;2.08;;;;;;;15.89;53.11;100610.78;4967048;28;113991;-73
2023/03/22 11:26:08;;;;;;;7.50;2.17;;;;;;;15.90;53.30;100611.69;4976921;28;124869;-72
2023/03/22 11:28:48;;;;;;;10.32;1.95;;;;;;;15.87;53.41;100606.53;4965293;28;123857;-72
2023/03/22 11:31:18;;;;;;;8.48;1.77;;;;;;;15.88;53.82;100613.56;4966579;28;114221;-72
2023/03/22 11:33:56;;;;;;;7.07;2.00;;;;;;;15.91;53.72;100608.03;4955638;28;115083;-72
2023/03/22 11:36:24;;;;;;;5.65;1.95;;;;;;;15.92;53.58;100610.59;4958272;28;124548;-72
2023/03/22 11:39:05;;;;;;;6.82;1.80;;;;;;;15.90;53.72;100601.84;4964722;28;124185;-72
2023/03/22 11:41:38;;;;;;;4.97;2.13;;;;;;;15.92;53.69;100609.75;4962581;28;115479;-72
2023/03/22 11:44:11;;;;;;;5.65;2.35;;;;;;;15.92;53.86;100615.09;4969916;28;114915;-74
2023/03/22 11:46:46;;;;;;;4.82;2.15;;;;;;;15.90;53.66;100606.34;4963845;28;124271;-72